Bernardo, New Mexico
Current Conditions -  °F | °C
As of 6:55 PM on Saturday 22 Nov 2014 (Local Time) from KE80 Reporting Station
Clear Clear  
Wind Chill: 50°   Ceiling: Unl
Heat Index: 50°   Visibility: 10mi
Dew Point: 14°   Wind: 8mph
Humidity: 24%   Direction: 260°W
Pressure: 29.92"   Gusts: NA
Location:  34.4828°N, 106.804°W
Report Text: KE80 230155Z AUTO 26007KT 10SM CLR 10/M10 A2992 RMK AO2 T01011100
Loading
Personal Weather Stations






























Interactive Weather Map New forecast layout! Learn more

10-Day Weather Forecast

Advertisements
Track Severe Weather on mobile